createdAt,value
2023-05-14T00:01:27.092Z,17.90
2023-05-14T00:03:57.823Z,17.80
2023-05-14T00:06:28.644Z,18.20
2023-05-14T00:08:59.432Z,18.10
2023-05-14T00:11:30.089Z,18.90
2023-05-14T00:14:00.691Z,18.30
2023-05-14T00:16:31.498Z,17.90
2023-05-14T00:19:02.310Z,16.80
2023-05-14T00:21:33.044Z,17.50
2023-05-14T00:24:03.859Z,17.30
2023-05-14T00:26:34.536Z,16.70
2023-05-14T00:29:05.206Z,17.40
2023-05-14T00:31:35.879Z,17.70
2023-05-14T00:34:06.571Z,17.90
2023-05-14T00:36:37.233Z,16.40
2023-05-14T00:39:08.050Z,17.70
2023-05-14T00:41:38.686Z,17.60
2023-05-14T00:44:12.003Z,18.20
2023-05-14T00:46:42.859Z,17.50
2023-05-14T00:49:13.864Z,18.30
2023-05-14T00:54:14.283Z,16.30
2023-05-14T00:56:45.420Z,17.80
2023-05-14T00:59:16.085Z,18.20
2023-05-14T01:01:46.686Z,16.60
2023-05-14T01:04:17.782Z,17.90
2023-05-14T01:09:26.460Z,17.80
2023-05-14T01:12:05.217Z,18.00
2023-05-14T01:14:42.823Z,17.50
2023-05-14T01:17:15.966Z,18.20
2023-05-14T01:19:47.465Z,19.00
2023-05-14T01:22:18.087Z,19.20
2023-05-14T01:24:48.827Z,18.70
2023-05-14T01:27:25.650Z,19.50
2023-05-14T01:30:09.912Z,18.60
2023-05-14T01:32:41.786Z,19.20
2023-05-14T01:35:13.210Z,19.00
2023-05-14T01:37:45.897Z,19.30
2023-05-14T01:40:17.301Z,19.90
2023-05-14T01:42:48.136Z,20.30
2023-05-14T01:45:19.968Z,18.90
2023-05-14T01:47:50.661Z,19.60
2023-05-14T01:50:21.648Z,19.60
2023-05-14T01:55:21.756Z,17.50
2023-05-14T02:00:23.933Z,15.80
2023-05-14T02:02:54.935Z,15.60
2023-05-14T02:05:25.996Z,17.10
2023-05-14T02:07:56.687Z,16.60
2023-05-14T02:10:27.434Z,17.00
2023-05-14T02:12:58.030Z,16.30
2023-05-14T02:15:28.691Z,16.50
2023-05-14T02:17:59.365Z,16.40
2023-05-14T02:20:30.076Z,16.20
2023-05-14T02:23:00.702Z,16.10
2023-05-14T02:25:31.335Z,15.40
2023-05-14T02:28:02.001Z,16.20
2023-05-14T02:30:32.695Z,15.30
2023-05-14T02:33:03.559Z,17.20
2023-05-14T02:35:34.287Z,15.40
2023-05-14T02:38:05.316Z,17.30
2023-05-14T02:40:36.673Z,16.50
2023-05-14T02:43:07.291Z,15.80
2023-05-14T02:45:38.410Z,15.30
2023-05-14T02:48:09.325Z,16.00
2023-05-14T02:50:40.080Z,15.80
2023-05-14T02:53:10.725Z,16.20
2023-05-14T02:55:41.906Z,15.50
2023-05-14T02:58:12.919Z,15.90
2023-05-14T03:03:13.066Z,15.60
2023-05-14T03:05:44.412Z,14.90
2023-05-14T03:08:15.070Z,16.10
2023-05-14T03:10:45.702Z,16.40
2023-05-14T03:13:16.332Z,16.50
2023-05-14T03:15:47.502Z,15.20
2023-05-14T03:18:18.089Z,15.00
2023-05-14T03:20:48.885Z,15.30
2023-05-14T03:23:19.577Z,15.30
2023-05-14T03:25:50.184Z,15.40
2023-05-14T03:28:20.795Z,15.10
2023-05-14T03:30:51.560Z,15.10
2023-05-14T03:33:22.724Z,14.90
2023-05-14T03:35:53.399Z,14.00
2023-05-14T03:38:24.433Z,15.10
2023-05-14T03:43:24.113Z,14.00
2023-05-14T03:45:54.686Z,14.60
2023-05-14T03:48:25.478Z,13.60
2023-05-14T03:53:25.318Z,13.10
2023-05-14T03:55:56.016Z,13.30
2023-05-14T03:58:27.317Z,13.20
2023-05-14T04:00:58.014Z,12.80
2023-05-14T04:03:28.969Z,12.40
2023-05-14T04:08:28.805Z,12.70
2023-05-14T04:10:59.463Z,11.80
2023-05-14T04:13:30.045Z,13.00
2023-05-14T04:16:00.721Z,14.30
2023-05-14T04:18:31.370Z,14.70
2023-05-14T04:21:02.213Z,13.10
2023-05-14T04:23:32.894Z,13.40
2023-05-14T04:26:03.823Z,13.20
2023-05-14T04:28:34.255Z,12.80
2023-05-14T04:31:05.115Z,12.70
2023-05-14T04:33:35.713Z,13.40
2023-05-14T04:36:07.316Z,13.70
2023-05-14T04:38:37.976Z,12.90
2023-05-14T04:41:08.636Z,12.90
2023-05-14T04:43:39.491Z,12.30
2023-05-14T04:46:10.150Z,12.80
2023-05-14T04:48:40.804Z,13.30
2023-05-14T04:51:11.728Z,13.30
2023-05-14T04:56:11.453Z,13.30
2023-05-14T04:58:42.150Z,13.00
2023-05-14T05:01:12.787Z,12.90
2023-05-14T05:03:43.755Z,14.00
2023-05-14T05:06:14.366Z,13.50
2023-05-14T05:08:44.965Z,14.30
2023-05-14T05:11:15.576Z,13.40
2023-05-14T05:13:46.232Z,13.60
2023-05-14T05:16:16.921Z,14.00
2023-05-14T05:18:47.718Z,13.60
2023-05-14T05:21:18.363Z,13.30
2023-05-14T05:23:49.017Z,13.10
2023-05-14T05:26:19.637Z,12.20
2023-05-14T05:28:50.275Z,12.90
2023-05-14T05:31:21.528Z,13.50
2023-05-14T05:33:52.260Z,13.50
2023-05-14T05:36:22.966Z,13.90
2023-05-14T05:38:53.652Z,13.70
2023-05-14T05:41:24.340Z,13.60
2023-05-14T05:43:54.996Z,13.70
2023-05-14T05:46:25.852Z,13.60
2023-05-14T05:51:25.705Z,13.50
2023-05-14T05:53:56.383Z,12.20
2023-05-14T05:56:26.954Z,12.50
2023-05-14T05:58:57.586Z,11.30
2023-05-14T06:01:28.317Z,12.10
2023-05-14T06:03:59.045Z,12.30
2023-05-14T06:06:30.148Z,12.20
2023-05-14T06:09:01.123Z,11.80
2023-05-14T06:14:00.917Z,11.60
2023-05-14T06:16:31.941Z,11.20
2023-05-14T06:19:02.670Z,11.70
2023-05-14T06:21:33.639Z,11.00
2023-05-14T06:24:04.558Z,12.30
2023-05-14T06:29:04.254Z,11.80
2023-05-14T06:31:36.309Z,12.20
2023-05-14T06:34:08.614Z,11.30
2023-05-14T06:36:39.258Z,11.40
2023-05-14T06:39:09.903Z,10.70
2023-05-14T06:41:40.520Z,10.40
2023-05-14T06:44:11.214Z,9.40
2023-05-14T06:49:11.095Z,9.40
2023-05-14T06:52:12.821Z,9.40
2023-05-14T06:54:33.569Z,8.50
2023-05-14T06:59:33.623Z,8.70
2023-05-14T07:02:04.214Z,8.70
2023-05-14T07:07:04.251Z,8.30
2023-05-14T07:09:34.984Z,7.10
2023-05-14T07:12:07.394Z,6.90
2023-05-14T07:14:38.054Z,7.10
2023-05-14T07:19:38.089Z,5.80
2023-05-14T07:24:37.995Z,5.50
2023-05-14T07:27:09.074Z,5.40
2023-05-14T07:29:39.684Z,5.00
2023-05-14T07:32:10.782Z,4.90
2023-05-14T07:34:42.633Z,4.30
2023-05-14T07:37:13.410Z,4.50
2023-05-14T07:39:44.110Z,3.50
2023-05-14T07:42:31.800Z,3.70
2023-05-14T07:45:06.472Z,3.30
2023-05-14T07:47:37.512Z,3.50
2023-05-14T07:50:10.635Z,3.30
2023-05-14T07:52:41.271Z,3.00
2023-05-14T07:57:43.294Z,3.00
2023-05-14T08:02:47.174Z,3.30
2023-05-14T08:05:20.440Z,3.70
2023-05-14T08:07:51.151Z,3.20
2023-05-14T08:12:51.157Z,3.30
2023-05-14T08:15:22.062Z,3.20
2023-05-14T08:17:52.743Z,2.90
2023-05-14T08:20:23.946Z,3.60
2023-05-14T08:22:54.668Z,3.30
2023-05-14T08:25:25.386Z,3.30
2023-05-14T08:27:56.106Z,3.10
2023-05-14T08:30:27.211Z,3.60
2023-05-14T08:32:58.520Z,3.60
2023-05-14T08:35:29.181Z,3.10
2023-05-14T08:37:59.843Z,3.10
2023-05-14T08:40:30.659Z,3.20
2023-05-14T08:43:02.576Z,3.30
2023-05-14T08:45:35.329Z,3.80
2023-05-14T08:48:10.944Z,4.90
2023-05-14T08:50:41.852Z,3.80
2023-05-14T08:53:12.888Z,3.60
2023-05-14T08:55:45.856Z,3.20
2023-05-14T08:58:16.587Z,3.50
2023-05-14T09:00:47.577Z,3.50
2023-05-14T09:03:19.249Z,3.00
2023-05-14T09:05:51.081Z,3.60
2023-05-14T09:08:22.541Z,3.20
2023-05-14T09:10:53.170Z,3.40
2023-05-14T09:13:25.315Z,3.50
2023-05-14T09:15:57.567Z,3.40
2023-05-14T09:18:28.370Z,3.80
2023-05-14T09:20:59.157Z,4.20
2023-05-14T09:23:33.668Z,3.80
2023-05-14T09:26:06.995Z,4.10
2023-05-14T09:28:39.397Z,3.70
2023-05-14T09:31:10.587Z,4.00
2023-05-14T09:33:41.263Z,3.90
2023-05-14T09:36:11.866Z,3.90
2023-05-14T09:38:42.618Z,4.40
2023-05-14T09:41:13.364Z,4.70
2023-05-14T09:43:44.256Z,4.40
2023-05-14T09:46:14.841Z,3.90
2023-05-14T09:48:46.871Z,3.90
2023-05-14T09:51:18.207Z,3.60
2023-05-14T09:53:49.984Z,4.10
2023-05-14T09:56:20.658Z,3.80
2023-05-14T09:58:51.394Z,4.10
2023-05-14T10:01:24.029Z,3.40
2023-05-14T10:03:55.608Z,3.80
2023-05-14T10:06:28.126Z,4.10
2023-05-14T10:09:03.160Z,4.20
2023-05-14T10:11:37.380Z,3.90
2023-05-14T10:14:13.273Z,4.60
2023-05-14T10:16:47.186Z,4.30
2023-05-14T10:19:20.569Z,4.10
2023-05-14T10:21:56.211Z,3.70
2023-05-14T10:24:27.817Z,4.30
2023-05-14T10:26:58.523Z,3.90
2023-05-14T10:29:35.855Z,3.70
2023-05-14T10:32:09.428Z,3.80
2023-05-14T10:34:42.248Z,4.10
2023-05-14T10:37:14.115Z,3.70
2023-05-14T10:39:50.359Z,3.40
2023-05-14T10:42:22.755Z,3.50
2023-05-14T10:44:55.610Z,3.20
2023-05-14T10:47:28.015Z,3.30
2023-05-14T10:50:00.159Z,3.30
2023-05-14T10:52:31.763Z,3.80
2023-05-14T10:55:04.844Z,3.50
2023-05-14T10:57:37.676Z,3.40
2023-05-14T11:00:11.063Z,3.50
2023-05-14T11:02:43.471Z,3.50
2023-05-14T11:05:16.288Z,3.40
2023-05-14T11:07:48.735Z,3.60
2023-05-14T11:10:20.994Z,3.30
2023-05-14T11:12:52.457Z,3.20
2023-05-14T11:15:25.476Z,3.90
2023-05-14T11:17:56.454Z,3.70
2023-05-14T11:20:27.351Z,3.40
2023-05-14T11:22:58.008Z,4.20
2023-05-14T11:25:28.867Z,3.50
2023-05-14T11:27:59.684Z,3.00
2023-05-14T11:30:32.850Z,3.60
2023-05-14T11:33:03.720Z,3.80
2023-05-14T11:35:37.540Z,3.40
2023-05-14T11:38:13.389Z,3.60
2023-05-14T11:40:51.205Z,3.40
2023-05-14T11:43:22.004Z,3.40
2023-05-14T11:45:55.768Z,3.40
2023-05-14T11:48:26.468Z,4.20
2023-05-14T11:50:57.484Z,4.70
2023-05-14T11:53:29.586Z,3.30
2023-05-14T11:56:00.412Z,3.10
2023-05-14T11:58:33.860Z,2.70
2023-05-14T12:01:04.728Z,3.20
2023-05-14T12:03:36.525Z,3.60
2023-05-14T12:06:09.650Z,3.50
2023-05-14T12:08:40.313Z,3.30
2023-05-14T12:11:11.053Z,2.90
2023-05-14T12:13:41.831Z,3.60
2023-05-14T12:16:12.896Z,2.70
2023-05-14T12:18:44.295Z,2.90
2023-05-14T12:21:15.022Z,2.80
2023-05-14T12:23:45.627Z,3.30
2023-05-14T12:26:16.198Z,2.90
2023-05-14T12:28:49.124Z,3.00
2023-05-14T12:31:27.538Z,3.10
2023-05-14T12:33:58.424Z,2.70
2023-05-14T12:36:29.129Z,2.90
2023-05-14T12:39:03.352Z,2.60
2023-05-14T12:41:34.589Z,3.00
2023-05-14T12:44:25.628Z,2.50
2023-05-14T12:46:56.482Z,3.30
2023-05-14T12:49:27.152Z,2.80
2023-05-14T12:52:25.633Z,2.80
2023-05-14T12:54:58.730Z,2.30
2023-05-14T12:57:29.561Z,2.70
2023-05-14T13:00:00.382Z,2.70
2023-05-14T13:02:31.439Z,3.10
2023-05-14T13:05:02.142Z,3.10
2023-05-14T13:07:32.812Z,2.80
2023-05-14T13:10:03.739Z,2.50
2023-05-14T13:12:34.533Z,3.10
2023-05-14T13:15:08.048Z,3.10
2023-05-14T13:17:38.890Z,3.10
2023-05-14T13:20:11.390Z,2.60
2023-05-14T13:22:42.161Z,2.90
2023-05-14T13:25:13.084Z,2.90
2023-05-14T13:27:43.822Z,3.00
2023-05-14T13:30:15.405Z,2.90
2023-05-14T13:32:46.278Z,2.50
2023-05-14T13:35:17.252Z,2.50
2023-05-14T13:37:48.746Z,2.40
2023-05-14T13:40:19.489Z,2.60
2023-05-14T13:42:50.392Z,2.20
2023-05-14T13:45:21.298Z,2.80
2023-05-14T13:47:52.169Z,2.60
2023-05-14T13:50:22.886Z,2.60
2023-05-14T13:52:53.542Z,3.10
2023-05-14T13:55:24.425Z,2.70
2023-05-14T13:57:58.244Z,2.90
2023-05-14T14:00:28.925Z,2.90
2023-05-14T14:02:59.627Z,2.80
2023-05-14T14:05:30.377Z,2.90
2023-05-14T14:08:08.208Z,2.60
2023-05-14T14:10:51.690Z,2.70
2023-05-14T14:13:22.664Z,2.80
2023-05-14T14:15:54.017Z,2.90
2023-05-14T14:18:24.792Z,2.80
2023-05-14T14:20:55.468Z,2.60
2023-05-14T14:23:26.121Z,2.60
2023-05-14T14:25:57.359Z,2.70
2023-05-14T14:28:28.050Z,2.80
2023-05-14T14:30:58.693Z,2.90
2023-05-14T14:33:29.421Z,2.80
2023-05-14T14:36:02.658Z,3.20
2023-05-14T14:38:33.397Z,3.10
2023-05-14T14:41:04.033Z,3.00
2023-05-14T14:43:35.269Z,3.30
2023-05-14T14:46:06.455Z,3.20
2023-05-14T14:48:38.026Z,3.00
2023-05-14T14:51:09.604Z,3.30
2023-05-14T14:53:40.238Z,3.00
2023-05-14T14:56:10.955Z,3.50
2023-05-14T14:58:41.659Z,3.30
2023-05-14T15:01:12.399Z,2.80
2023-05-14T15:03:43.158Z,3.50
2023-05-14T15:06:14.051Z,3.00
2023-05-14T15:08:44.692Z,3.00
2023-05-14T15:11:15.394Z,2.90
2023-05-14T15:13:46.077Z,3.50
2023-05-14T15:16:16.822Z,3.30
2023-05-14T15:18:47.623Z,3.30
2023-05-14T15:21:18.525Z,3.50
2023-05-14T15:23:49.214Z,3.40
2023-05-14T15:26:20.529Z,3.70
2023-05-14T15:28:51.243Z,3.70
2023-05-14T15:31:21.911Z,3.50
2023-05-14T15:33:53.097Z,3.10
2023-05-14T15:36:23.918Z,3.40
2023-05-14T15:38:54.603Z,3.40
2023-05-14T15:41:26.238Z,3.20
2023-05-14T15:43:57.013Z,3.40
2023-05-14T15:46:27.712Z,3.80
2023-05-14T15:48:59.230Z,3.70
2023-05-14T15:51:30.362Z,3.60
2023-05-14T15:54:01.030Z,3.80
2023-05-14T15:56:31.937Z,4.10
2023-05-14T15:59:02.666Z,4.80
2023-05-14T16:01:33.332Z,3.90
2023-05-14T16:04:04.340Z,3.90
2023-05-14T16:06:35.145Z,4.20
2023-05-14T16:09:05.721Z,4.10
2023-05-14T16:14:05.372Z,4.00
2023-05-14T16:16:36.163Z,4.20
2023-05-14T16:19:06.933Z,4.30
2023-05-14T16:21:37.869Z,4.00
2023-05-14T16:24:09.251Z,4.00
2023-05-14T16:26:40.068Z,4.20
2023-05-14T16:29:10.670Z,3.80
2023-05-14T16:34:10.454Z,4.00
2023-05-14T16:36:41.116Z,3.60
2023-05-14T16:39:12.154Z,4.20
2023-05-14T16:42:03.551Z,4.10
2023-05-14T16:44:34.154Z,4.00
2023-05-14T16:49:33.970Z,3.40
2023-05-14T16:54:33.679Z,3.90
2023-05-14T16:59:33.577Z,4.30
2023-05-14T17:02:08.839Z,3.90
2023-05-14T17:04:42.373Z,4.00
2023-05-14T17:07:23.944Z,4.00
2023-05-14T17:12:24.276Z,4.00
2023-05-14T17:14:55.088Z,3.80
2023-05-14T17:17:25.899Z,4.30
2023-05-14T17:22:48.705Z,3.90
2023-05-14T17:25:17.421Z,4.10
2023-05-14T17:27:50.292Z,4.10
2023-05-14T17:30:21.049Z,4.20
2023-05-14T17:32:51.727Z,4.80
2023-05-14T17:35:22.785Z,4.30
2023-05-14T17:37:55.979Z,4.20
2023-05-14T17:40:36.581Z,4.90
2023-05-14T17:43:27.820Z,4.60
2023-05-14T17:45:58.621Z,4.80
2023-05-14T17:48:29.892Z,4.50
2023-05-14T17:51:00.623Z,4.90
2023-05-14T17:53:31.301Z,5.10
2023-05-14T17:56:04.948Z,4.80
2023-05-14T17:58:35.739Z,5.70
2023-05-14T18:01:06.592Z,5.70
2023-05-14T18:03:37.544Z,6.10
2023-05-14T18:06:08.702Z,5.10
2023-05-14T18:08:39.312Z,5.10
2023-05-14T18:11:10.268Z,4.80
2023-05-14T18:13:41.053Z,5.30
2023-05-14T18:18:43.434Z,5.60
2023-05-14T18:21:14.081Z,5.40
2023-05-14T18:23:44.771Z,5.60
2023-05-14T18:26:15.547Z,5.00
2023-05-14T18:31:15.307Z,4.60
2023-05-14T18:33:54.433Z,4.60
2023-05-14T18:36:25.058Z,4.70
2023-05-14T18:39:05.655Z,4.80
2023-05-14T18:41:36.313Z,5.00
2023-05-14T18:44:07.018Z,4.60
2023-05-14T18:46:38.020Z,5.00
2023-05-14T18:51:37.993Z,4.80
2023-05-14T18:54:11.741Z,5.10
2023-05-14T18:56:42.433Z,6.20
2023-05-14T18:59:13.106Z,5.50
2023-05-14T19:01:43.817Z,6.30
2023-05-14T19:06:44.089Z,8.30
2023-05-14T19:09:14.926Z,9.60
2023-05-14T19:11:45.764Z,17.20
2023-05-14T19:14:16.479Z,18.00
2023-05-14T19:19:16.622Z,18.50
2023-05-14T19:21:47.744Z,18.50
2023-05-14T19:24:20.791Z,17.90
2023-05-14T19:29:20.746Z,15.00
2023-05-14T19:31:51.376Z,14.90
2023-05-14T19:34:22.116Z,13.80
2023-05-14T19:36:52.842Z,13.70
2023-05-14T19:41:52.699Z,14.80
2023-05-14T19:44:23.381Z,14.40
2023-05-14T19:46:54.167Z,13.90
2023-05-14T19:51:54.032Z,17.00
2023-05-14T19:54:24.761Z,17.80
2023-05-14T19:56:55.482Z,19.50
2023-05-14T19:59:26.371Z,21.30
2023-05-14T20:01:57.102Z,23.60
2023-05-14T20:04:27.788Z,24.00
2023-05-14T20:06:58.476Z,25.60
2023-05-14T20:09:29.103Z,21.00
2023-05-14T20:12:01.164Z,20.90
2023-05-14T20:14:52.418Z,20.40
2023-05-14T20:17:24.953Z,18.70
2023-05-14T20:22:45.251Z,15.60
2023-05-14T20:25:16.974Z,18.00
2023-05-14T20:27:47.680Z,18.60
2023-05-14T20:30:18.324Z,18.90
2023-05-14T20:32:49.023Z,19.10
2023-05-14T20:35:19.680Z,18.90
2023-05-14T20:37:50.939Z,17.60
2023-05-14T20:40:21.922Z,18.00
2023-05-14T20:42:52.619Z,19.10
2023-05-14T20:45:23.586Z,18.70
2023-05-14T20:47:54.590Z,20.10
2023-05-14T20:50:25.231Z,22.60
2023-05-14T20:52:56.882Z,27.00
2023-05-14T20:55:27.768Z,26.40
2023-05-14T20:57:58.894Z,23.90
2023-05-14T21:00:29.538Z,23.00
2023-05-14T21:03:00.490Z,20.10
2023-05-14T21:05:31.330Z,17.80
2023-05-14T21:08:02.007Z,17.00
2023-05-14T21:10:32.672Z,16.50
2023-05-14T21:13:03.328Z,14.30
2023-05-14T21:15:34.068Z,14.40
2023-05-14T21:18:04.962Z,13.20
2023-05-14T21:23:04.679Z,12.70
2023-05-14T21:25:35.488Z,14.70
2023-05-14T21:30:35.455Z,13.70
2023-05-14T21:33:06.176Z,16.10
2023-05-14T21:35:37.239Z,16.00
2023-05-14T21:38:07.967Z,17.20
2023-05-14T21:40:38.588Z,16.70
2023-05-14T21:43:09.382Z,17.30
2023-05-14T21:45:40.110Z,17.20
2023-05-14T21:48:10.867Z,17.30
2023-05-14T21:50:41.561Z,15.20
2023-05-14T21:53:15.257Z,15.50
2023-05-14T21:55:46.278Z,16.80
2023-05-14T21:58:17.002Z,14.30
2023-05-14T22:00:47.640Z,14.40
2023-05-14T22:03:18.401Z,13.60
2023-05-14T22:08:18.225Z,12.60
2023-05-14T22:10:49.569Z,12.80
2023-05-14T22:13:20.178Z,11.50
2023-05-14T22:15:58.115Z,12.60
2023-05-14T22:18:35.769Z,11.80
2023-05-14T22:21:06.576Z,11.20
2023-05-14T22:23:37.179Z,11.40
2023-05-14T22:26:07.927Z,11.70
2023-05-14T22:28:38.563Z,12.80
2023-05-14T22:31:09.275Z,12.20
2023-05-14T22:33:39.887Z,11.60
2023-05-14T22:36:12.345Z,11.70
2023-05-14T22:38:43.021Z,11.70
2023-05-14T22:41:14.447Z,12.10
2023-05-14T22:43:45.104Z,12.00
2023-05-14T22:46:15.948Z,12.60
2023-05-14T22:51:15.935Z,12.40
2023-05-14T22:53:46.544Z,13.30
2023-05-14T22:56:17.245Z,12.70
2023-05-14T22:58:47.831Z,13.10
2023-05-14T23:01:18.515Z,12.30
2023-05-14T23:03:49.136Z,13.10
2023-05-14T23:06:20.018Z,13.40
2023-05-14T23:11:19.792Z,14.10
2023-05-14T23:13:50.383Z,14.20
2023-05-14T23:16:21.510Z,13.60
2023-05-14T23:18:52.159Z,12.50
2023-05-14T23:21:22.961Z,12.80
2023-05-14T23:23:53.580Z,11.50
2023-05-14T23:26:24.811Z,12.30
2023-05-14T23:28:55.443Z,12.00
2023-05-14T23:31:26.238Z,12.20
2023-05-14T23:33:59.010Z,12.30
2023-05-14T23:36:29.968Z,11.60
2023-05-14T23:41:29.677Z,10.20
2023-05-14T23:44:00.318Z,11.20
2023-05-14T23:46:31.064Z,10.20
2023-05-14T23:49:02.210Z,10.30
2023-05-14T23:51:32.820Z,10.40
2023-05-14T23:54:03.611Z,11.20
2023-05-14T23:56:34.375Z,11.20
2023-05-14T23:59:05.030Z,10.70
